Pagina principale
METAR-TAF:

METAR-TAF

Aeroporti :

Irene, Sudafrica

latitudine: 25-54-36S, longitudine: 28-12-40E, altezza: 1523 m

Osservazione

Il bollettino è stato emesso 15 ore e 21 minuti fa, alle 12:30 UTC
Vento 4 kt da nord/nord-est
Temperature 22°C
Umidità 60%
Pressione 1021 hPa
Visibilità 10 km o più
Nubi sparse ad un'altezza di 3000 ft
Nuvoloso ad un'altezza di 9000 ft
pioggia debole

METAR: FAIR 201230Z 02004KT 9999 -RA SCT030 BKN090 22/14 Q1021

Ora: 05:51 (03:51 UTC)


TAF: mancante

Osservazioni e previsioni meteorologiche di più di 4000 aeroporti (messaggi METAR e TAF).

Le stazioni disponibili sono rappresentate dai dischi gialli e rossi sulla carta.

Puntare il mouse per vedere il nome della stazione.

Clicca sopra per visualizzare le osservazioni e previsioni meteorologiche.

Per cambiare la mappa : fare clic sui pulsanti verdi con una croce nera per ingrandire, il pulsante verde con un trattino per diminuire, o sulla freccia verde per le mappe adiacenti.


METAR-TAF: